Time;durP1;ratioP1;P1;durP2;ratioP2;P2;SDS_P1;SDS_P2;PMS_P1;PMS_P2;Temp;Humidity;BMP_temperature;BMP_pressure;BME280_temperature;BME280_humidity;BME280_pressure;Samples;Min_cycle;Max_cycle;Signal;HPM_P1;HPM_P2
2023/03/18 00:01:48;;;;;;;;;;;;;;;21.84;19.87;98301.22;5016555;28;1177;-75
2023/03/18 00:04:13;;;;;;;;;;;;;;;21.82;20.00;98295.22;5016349;28;1197;-75
2023/03/18 00:06:39;;;;;;;;;;;;;;;21.65;20.14;98304.09;5017158;28;1003;-75
2023/03/18 00:09:05;;;;;;;;;;;;;;;22.05;19.56;98299.13;5016411;28;1222;-76
2023/03/18 00:11:30;;;;;;;;;;;;;;;22.18;19.53;98302.91;5016906;28;954;-76
2023/03/18 00:13:56;;;;;;;;;;;;;;;22.25;19.13;98294.22;5016543;28;1019;-75
2023/03/18 00:16:22;;;;;;;;;;;;;;;21.75;19.88;98295.38;5016130;28;1030;-75
2023/03/18 00:18:48;;;;;;;;;;;;;;;21.54;20.06;98298.66;5015908;28;1971;-75
2023/03/18 00:21:15;;;;;;;;;;;;;;;21.72;19.82;98286.97;5000339;28;1302;-75
2023/03/18 00:23:41;;;;;;;;;;;;;;;22.28;19.21;98290.53;4999916;28;952;-75
2023/03/18 00:26:07;;;;;;;;;;;;;;;22.33;19.33;98281.47;5000057;28;971;-75
2023/03/18 00:28:34;;;;;;;;;;;;;;;21.94;19.73;98287.25;4984054;28;1223;-75
2023/03/18 00:31:07;;;;;;;;;;;;;;;21.71;19.82;98279.69;5000049;28;1299;-75
2023/03/18 00:33:33;;;;;;;;;;;;;;;21.82;20.00;98275.41;5016301;28;979;-74
2023/03/18 00:35:59;;;;;;;;;;;;;;;22.24;19.29;98277.66;5017475;28;865;-75
2023/03/18 00:38:25;;;;;;;;;;;;;;;22.09;19.37;98268.69;5015504;28;1969;-75
2023/03/18 00:41:00;;;;;;;;;;;;;;;22.19;19.13;98270.50;4999302;28;1264;-76
2023/03/18 00:43:28;;;;;;;;;;;;;;;22.00;19.58;98269.28;5015621;28;1158;-75
2023/03/18 00:45:54;;;;;;;;;;;;;;;21.83;19.72;98268.47;4999217;28;919;-75
2023/03/18 00:48:21;;;;;;;;;;;;;;;22.04;19.53;98277.72;4983586;28;1164;-74
2023/03/18 00:50:46;;;;;;;;;;;;;;;22.17;19.59;98270.13;4983288;28;1251;-74
2023/03/18 00:53:13;;;;;;;;;;;;;;;22.22;19.31;98269.59;4983361;28;1239;-75
2023/03/18 00:55:39;;;;;;;;;;;;;;;21.90;19.83;98272.38;5015762;28;942;-75
2023/03/18 00:58:05;;;;;;;;;;;;;;;21.72;19.86;98273.59;4999017;28;1898;-75
2023/03/18 01:00:30;;;;;;;;;;;;;;;21.62;19.95;98266.16;4999578;28;923;-75
2023/03/18 01:02:56;;;;;;;;;;;;;;;21.98;19.57;98271.00;5015663;28;1504;-75
2023/03/18 01:05:21;;;;;;;;;;;;;;;22.10;19.62;98273.94;4983059;28;1132;-75
2023/03/18 01:07:47;;;;;;;;;;;;;;;21.93;19.47;98269.47;4998974;28;1097;-75
2023/03/18 01:10:13;;;;;;;;;;;;;;;21.78;19.75;98268.22;4983503;28;1153;-76
2023/03/18 01:12:40;;;;;;;;;;;;;;;21.63;19.87;98273.41;4999140;28;1107;-75
2023/03/18 01:15:09;;;;;;;;;;;;;;;21.76;19.95;98271.50;5016536;28;947;-74
2023/03/18 01:17:34;;;;;;;;;;;;;;;22.16;19.37;98276.25;4998827;28;966;-75
2023/03/18 01:20:01;;;;;;;;;;;;;;;22.22;19.37;98275.25;5015149;28;1918;-75
2023/03/18 01:22:27;;;;;;;;;;;;;;;21.94;19.62;98270.28;4982893;28;1466;-75
2023/03/18 01:24:52;;;;;;;;;;;;;;;21.75;19.79;98275.53;5016619;28;992;-74
2023/03/18 01:27:24;;;;;;;;;;;;;;;21.89;19.81;98273.63;4999614;28;1242;-75
2023/03/18 01:29:50;;;;;;;;;;;;;;;21.72;19.91;98270.78;4999191;28;1262;-75
2023/03/18 01:32:21;;;;;;;;;;;;;;;22.10;19.60;98271.09;4999228;28;1179;-75
2023/03/18 01:34:46;;;;;;;;;;;;;;;22.09;19.46;98277.97;5014747;28;1242;-75
2023/03/18 01:37:12;;;;;;;;;;;;;;;21.85;19.72;98276.53;4982561;28;1083;-74
2023/03/18 01:39:41;;;;;;;;;;;;;;;21.89;19.57;98273.63;4998849;28;1910;-75
2023/03/18 01:42:16;;;;;;;;;;;;;;;21.79;19.76;98270.59;5015141;28;1136;-75
2023/03/18 01:44:42;;;;;;;;;;;;;;;22.21;19.60;98262.34;4982839;28;1290;-75
2023/03/18 01:47:09;;;;;;;;;;;;;;;21.89;19.66;98280.09;5014970;28;1180;-75
2023/03/18 01:49:42;;;;;;;;;;;;;;;22.20;19.40;98266.41;4983017;28;1161;-75
2023/03/18 01:52:08;;;;;;;;;;;;;;;22.02;19.71;98266.00;4982103;28;1140;-75
2023/03/18 01:54:35;;;;;;;;;;;;;;;21.78;20.02;98274.66;5014723;28;1296;-75
2023/03/18 01:57:01;;;;;;;;;;;;;;;21.73;20.18;98272.34;4998663;28;1231;-75
2023/03/18 01:59:27;;;;;;;;;;;;;;;21.84;19.79;98275.75;5014732;28;1926;-75
2023/03/18 02:01:53;;;;;;;;;;;;;;;21.98;19.92;98276.66;4982092;28;1117;-75
2023/03/18 02:04:20;;;;;;;;;;;;;;;22.20;19.70;98276.97;5014494;28;1414;-74
2023/03/18 02:06:45;;;;;;;;;;;;;;;21.63;20.10;98279.06;4998203;28;1630;-75
2023/03/18 02:09:11;;;;;;;;;;;;;;;21.53;20.08;98271.59;5014529;28;1115;-75
2023/03/18 02:11:38;;;;;;;;;;;;;;;21.91;20.00;98276.81;4982368;28;1138;-75
2023/03/18 02:14:04;;;;;;;;;;;;;;;22.02;19.61;98274.50;5014880;28;1092;-75
2023/03/18 02:16:34;;;;;;;;;;;;;;;22.06;19.49;98266.72;5014471;28;990;-76
2023/03/18 02:19:21;;;;;;;;;;;;;;;21.89;19.85;98270.78;4997865;28;1902;-76
2023/03/18 02:21:52;;;;;;;;;;;;;;;21.80;19.81;98269.34;5014429;28;933;-75
2023/03/18 02:24:34;;;;;;;;;;;;;;;21.95;19.52;98266.19;5014535;28;1266;-76
2023/03/18 02:27:12;;;;;;;;;;;;;;;22.00;19.50;98262.84;4998613;28;1152;-75
2023/03/18 02:29:39;;;;;;;;;;;;;;;21.95;19.90;98266.19;4997996;28;1497;-75
2023/03/18 02:32:09;;;;;;;;;;;;;;;22.13;19.13;98266.59;4998734;28;1283;-74
2023/03/18 02:34:35;;;;;;;;;;;;;;;22.12;19.42;98259.31;4997984;28;1122;-75
2023/03/18 02:37:00;;;;;;;;;;;;;;;21.95;19.49;98261.31;5014335;28;1447;-75
2023/03/18 02:39:28;;;;;;;;;;;;;;;21.95;19.40;98260.53;4961011;28;1969;-76
2023/03/18 02:41:55;;;;;;;;;;;;;;;21.98;19.66;98265.31;4977777;28;1066;-75
2023/03/18 02:44:21;;;;;;;;;;;;;;;22.06;19.25;98255.41;4977299;28;1280;-76
2023/03/18 02:47:22;;;;;;;;;;;;;;;21.89;19.48;98265.13;4916351;29;975;-75
2023/03/18 02:49:48;;;;;;;;;;;;;;;21.88;19.48;98255.03;4900830;29;1187;-75
2023/03/18 02:52:14;;;;;;;;;;;;;;;21.95;19.34;98260.53;4900864;29;1081;-76
2023/03/18 02:54:40;;;;;;;;;;;;;;;22.04;19.27;98257.88;4916682;29;1105;-75
2023/03/18 02:57:06;;;;;;;;;;;;;;;22.00;19.31;98262.84;4900491;29;1364;-75
2023/03/18 02:59:32;;;;;;;;;;;;;;;21.90;19.39;98258.22;4900823;29;1978;-75
2023/03/18 03:01:58;;;;;;;;;;;;;;;21.81;19.68;98262.47;4901024;29;1093;-75
2023/03/18 03:04:24;;;;;;;;;;;;;;;21.75;19.63;98255.72;4904219;29;1225;-75
2023/03/18 03:06:51;;;;;;;;;;;;;;;22.11;19.52;98269.06;4904589;29;1174;-75
2023/03/18 03:09:23;;;;;;;;;;;;;;;22.26;18.98;98264.63;4903210;29;1325;-75
2023/03/18 03:11:50;;;;;;;;;;;;;;;21.93;19.27;98251.69;4885614;29;1045;-75
2023/03/18 03:14:20;;;;;;;;;;;;;;;21.70;19.46;98261.91;4886145;29;1189;-75
2023/03/18 03:16:49;;;;;;;;;;;;;;;21.82;19.39;98263.25;4884851;29;1387;-75
2023/03/18 03:19:15;;;;;;;;;;;;;;;21.96;19.50;98245.91;4885064;29;1993;-76
2023/03/18 03:21:41;;;;;;;;;;;;;;;22.18;18.99;98246.22;4933838;28;1106;-75
2023/03/18 03:24:07;;;;;;;;;;;;;;;22.14;19.11;98248.34;4944843;28;1161;-74
2023/03/18 03:26:33;;;;;;;;;;;;;;;21.89;19.24;98245.28;4961536;28;957;-75
2023/03/18 03:28:59;;;;;;;;;;;;;;;21.94;19.52;98241.94;4960622;28;1095;-75
2023/03/18 03:31:26;;;;;;;;;;;;;;;21.66;19.83;98247.03;4960959;28;1435;-74
2023/03/18 03:33:51;;;;;;;;;;;;;;;22.22;18.93;98252.59;4965308;28;1176;-76
2023/03/18 03:36:17;;;;;;;;;;;;;;;22.06;19.23;98244.06;4964100;28;1251;-75
2023/03/18 03:38:43;;;;;;;;;;;;;;;22.16;19.21;98243.03;4980066;28;1991;-75
2023/03/18 03:41:09;;;;;;;;;;;;;;;22.25;19.35;98240.38;4963826;28;1128;-75
2023/03/18 03:43:35;;;;;;;;;;;;;;;22.06;19.29;98238.38;4964023;28;1213;-75
2023/03/18 03:46:02;;;;;;;;;;;;;;;21.76;19.38;98237.50;4963902;28;1140;-75
2023/03/18 03:48:28;;;;;;;;;;;;;;;21.79;19.55;98250.78;4991935;28;1143;-75
2023/03/18 03:50:54;;;;;;;;;;;;;;;22.20;19.13;98238.06;4979786;28;1239;-75
2023/03/18 03:53:20;;;;;;;;;;;;;;;22.20;18.96;98232.41;4963960;28;1322;-75
2023/03/18 03:55:45;;;;;;;;;;;;;;;21.98;19.24;98237.00;4980238;28;1034;-74
2023/03/18 03:58:11;;;;;;;;;;;;;;;22.01;19.11;98236.09;4979546;28;1988;-75
2023/03/18 04:00:37;;;;;;;;;;;;;;;21.69;19.49;98237.66;4979832;28;1351;-75
2023/03/18 04:03:03;;;;;;;;;;;;;;;21.82;19.34;98235.72;4979442;28;1224;-75
2023/03/18 04:05:29;;;;;;;;;;;;;;;22.06;19.23;98233.53;4979881;28;1003;-75
2023/03/18 04:07:58;;;;;;;;;;;;;;;22.12;19.18;98236.66;4976007;28;1166;-75
2023/03/18 04:10:35;;;;;;;;;;;;;;;21.83;19.12;98240.16;4945603;28;1310;-75
2023/03/18 04:13:02;;;;;;;;;;;;;;;21.72;19.36;98233.94;4944337;28;1173;-75
2023/03/18 04:15:28;;;;;;;;;;;;;;;21.64;19.58;98243.84;4927500;28;1718;-75
2023/03/18 04:17:54;;;;;;;;;;;;;;;22.18;19.20;98246.22;4960084;28;1074;-75
2023/03/18 04:20:20;;;;;;;;;;;;;;;22.18;19.30;98240.56;4957192;28;2324;-75
2023/03/18 04:22:46;;;;;;;;;;;;;;;22.16;18.98;98237.34;4940661;29;1085;-75
2023/03/18 04:25:15;;;;;;;;;;;;;;;22.06;18.98;98235.56;4909300;29;1409;-75
2023/03/18 04:27:41;;;;;;;;;;;;;;;21.95;19.18;98237.84;4921587;29;1172;-75
2023/03/18 04:30:10;;;;;;;;;;;;;;;21.69;19.75;98237.66;4921976;29;1179;-76
2023/03/18 04:32:50;;;;;;;;;;;;;;;22.00;19.29;98235.28;4923048;29;1175;-76
2023/03/18 04:35:17;;;;;;;;;;;;;;;22.23;19.18;98242.06;4921694;29;1153;-75
2023/03/18 04:37:43;;;;;;;;;;;;;;;22.28;18.85;98233.81;4902231;29;1262;-74
2023/03/18 04:40:10;;;;;;;;;;;;;;;21.83;19.38;98237.31;4899495;29;1906;-75
2023/03/18 04:42:36;;;;;;;;;;;;;;;22.07;19.06;98228.66;4887101;29;1782;-75
2023/03/18 04:45:04;;;;;;;;;;;;;;;21.67;19.52;98237.31;4885311;29;1645;-76
2023/03/18 04:47:31;;;;;;;;;;;;;;;22.11;19.03;98229.38;4868267;29;1064;-75
2023/03/18 04:49:56;;;;;;;;;;;;;;;22.16;19.04;98226.03;4868345;29;1071;-75
2023/03/18 04:52:23;;;;;;;;;;;;;;;22.16;19.20;98231.69;4916895;29;1528;-75
2023/03/18 04:54:49;;;;;;;;;;;;;;;21.94;19.50;98227.78;4937297;29;1290;-75
2023/03/18 04:57:15;;;;;;;;;;;;;;;21.78;19.18;98229.34;4924758;29;1253;-76
2023/03/18 04:59:47;;;;;;;;;;;;;;;21.68;19.83;98227.56;4919046;29;1903;-76
2023/03/18 05:02:13;;;;;;;;;;;;;;;22.02;19.19;98226.34;4917271;29;1468;-75
2023/03/18 05:04:38;;;;;;;;;;;;;;;22.20;19.01;98243.75;4933614;29;1135;-75
2023/03/18 05:07:04;;;;;;;;;;;;;;;22.00;19.11;98243.78;4901504;29;1590;-75
2023/03/18 05:09:35;;;;;;;;;;;;;;;21.71;19.37;98246.53;4917232;29;1149;-75
2023/03/18 05:12:01;;;;;;;;;;;;;;;21.83;19.20;98237.31;4917160;29;1560;-75
2023/03/18 05:14:33;;;;;;;;;;;;;;;21.97;19.25;98258.06;4921663;29;1173;-75
2023/03/18 05:17:00;;;;;;;;;;;;;;;22.14;19.19;98258.91;4951970;28;1437;-75
2023/03/18 05:19:27;;;;;;;;;;;;;;;22.16;19.02;98259.22;4941449;28;1973;-75
2023/03/18 05:22:00;;;;;;;;;;;;;;;21.80;19.17;98260.06;4954468;28;1473;-75
2023/03/18 05:24:26;;;;;;;;;;;;;;;21.76;19.40;98260.16;4939566;28;1324;-74
2023/03/18 05:26:53;;;;;;;;;;;;;;;21.78;19.54;98260.50;4939244;29;1559;-75
2023/03/18 05:29:22;;;;;;;;;;;;;;;22.10;18.96;98256.09;4939604;29;1378;-76
2023/03/18 05:32:08;;;;;;;;;;;;;;;22.18;19.30;98251.09;4939287;29;1440;-75
2023/03/18 05:34:36;;;;;;;;;;;;;;;22.07;19.16;98259.81;4939611;28;1186;-76
2023/03/18 05:37:03;;;;;;;;;;;;;;;21.75;19.51;98261.38;4954342;28;1418;-75
2023/03/18 05:39:31;;;;;;;;;;;;;;;21.47;19.76;98253.53;4946554;28;1973;-76
2023/03/18 05:41:56;;;;;;;;;;;;;;;21.69;19.71;98254.66;4979307;28;1164;-75
2023/03/18 05:44:27;;;;;;;;;;;;;;;22.10;19.27;98250.44;4996533;28;1273;-75
2023/03/18 05:46:55;;;;;;;;;;;;;;;22.26;19.04;98252.50;4979382;28;1112;-76
2023/03/18 05:49:42;;;;;;;;;;;;;;;22.22;18.76;98241.25;4980471;28;1435;-75
2023/03/18 05:52:27;;;;;;;;;;;;;;;21.77;19.42;98243.97;4994998;28;1325;-75
2023/03/18 05:54:57;;;;;;;;;;;;;;;21.71;19.56;98252.19;4979838;28;1447;-76
2023/03/18 05:57:30;;;;;;;;;;;;;;;21.93;19.03;98248.84;4955284;29;1428;-75
2023/03/18 06:00:02;;;;;;;;;;;;;;;22.20;19.07;98252.25;4939875;29;1973;-75
2023/03/18 06:02:40;;;;;;;;;;;;;;;22.17;18.87;98252.31;4926607;29;1247;-75
2023/03/18 06:05:07;;;;;;;;;;;;;;;22.25;18.78;98257.38;4938157;29;1536;-75
2023/03/18 06:07:33;;;;;;;;;;;;;;;21.85;19.16;98257.50;4916940;29;1123;-75
2023/03/18 06:09:59;;;;;;;;;;;;;;;21.84;19.46;98255.91;4901232;29;1416;-76
2023/03/18 06:12:26;;;;;;;;;;;;;;;21.99;19.05;98255.56;4885682;29;1127;-75
2023/03/18 06:14:52;;;;;;;;;;;;;;;21.96;19.46;98239.44;4917075;29;1137;-75
2023/03/18 06:17:19;;;;;;;;;;;;;;;22.20;18.84;98248.63;4916915;29;1097;-75
2023/03/18 06:19:45;;;;;;;;;;;;;;;21.92;19.43;98258.59;4915946;29;1903;-76
2023/03/18 06:22:11;;;;;;;;;;;;;;;21.79;19.24;98247.94;4916846;29;1308;-76
2023/03/18 06:24:37;;;;;;;;;;;;;;;21.74;19.39;98253.31;4916793;29;1093;-75
2023/03/18 06:27:04;;;;;;;;;;;;;;;21.99;19.16;98255.56;4916804;29;1205;-76
2023/03/18 06:29:30;;;;;;;;;;;;;;;22.18;18.94;98257.56;4934350;29;1298;-75
2023/03/18 06:32:03;;;;;;;;;;;;;;;22.46;18.64;98261.69;4926663;28;1169;-76
2023/03/18 06:34:28;;;;;;;;;;;;;;;22.04;19.18;98257.88;4918885;29;1312;-76
2023/03/18 06:36:55;;;;;;;;;;;;;;;21.64;19.52;98257.19;4916721;29;1163;-75
2023/03/18 06:39:21;;;;;;;;;;;;;;;21.53;19.67;98261.06;4904555;29;1907;-75
2023/03/18 06:41:48;;;;;;;;;;;;;;;21.95;19.46;98269.81;4904724;29;1361;-75
2023/03/18 06:44:50;;;;;;;;;;;;;;;21.96;19.26;98267.78;4894319;29;1036;-75
2023/03/18 06:47:20;;;;;;;;;;;;;;;22.06;19.10;98278.06;4909215;29;1366;-75
2023/03/18 06:49:52;;;;;;;;;;;;;;;21.89;19.42;98285.75;4903840;29;1495;-75
2023/03/18 06:52:26;;;;;;;;;;;;;;;21.51;19.56;98285.41;4920446;29;1252;-75
2023/03/18 06:54:56;;;;;;;;;;;;;;;21.88;19.57;98289.03;4919991;29;1106;-75
2023/03/18 06:57:21;;;;;;;;;;;;;;;22.13;19.02;98292.09;4920034;29;933;-76
2023/03/18 06:59:49;;;;;;;;;;;;;;;22.25;18.98;98297.06;4919892;29;1967;-75
2023/03/18 07:02:15;;;;;;;;;;;;;;;21.85;19.35;98296.38;4919888;29;1199;-75
2023/03/18 07:04:40;;;;;;;;;;;;;;;21.75;19.69;98291.75;4929014;28;1326;-76
2023/03/18 07:07:07;;;;;;;;;;;;;;;21.81;19.57;98301.31;4961375;28;1199;-75
2023/03/18 07:09:35;;;;;;;;;;;;;;;21.98;19.62;98305.00;4930264;28;1062;-75
2023/03/18 07:12:01;;;;;;;;;;;;;;;22.29;18.90;98294.16;4961479;28;1053;-75
2023/03/18 07:14:27;;;;;;;;;;;;;;;22.18;19.19;98296.47;4950926;29;1400;-76
2023/03/18 07:16:54;;;;;;;;;;;;;;;21.91;19.33;98288.94;4885063;29;1433;-75
2023/03/18 07:19:19;;;;;;;;;;;;;;;21.80;19.53;98292.00;4889046;29;1899;-75
2023/03/18 07:21:45;;;;;;;;;;;;;;;21.70;19.79;98289.44;4926332;29;1378;-75
2023/03/18 07:24:11;;;;;;;;;;;;;;;22.05;19.34;98294.28;4942248;29;1054;-75
2023/03/18 07:26:37;;;;;;;;;;;;;;;22.16;19.35;98288.38;4941920;29;1610;-76
2023/03/18 07:29:03;;;;;;;;;;;;;;;22.25;19.30;98290.59;4926165;29;1238;-75
2023/03/18 07:31:29;;;;;;;;;;;;;;;21.89;19.86;98284.97;4957686;29;994;-76
2023/03/18 07:33:56;;;;;;;;;;;;;;;21.87;19.81;98287.44;4940102;29;1314;-75
2023/03/18 07:36:22;;;;;;;;;;;;;;;21.77;19.69;98290.06;4940772;29;1556;-76
2023/03/18 07:38:47;;;;;;;;;;;;;;;21.83;19.87;98288.31;4941688;29;1898;-75
2023/03/18 07:41:13;;;;;;;;;;;;;;;21.85;19.60;98296.38;4958038;29;977;-75
2023/03/18 07:43:38;;;;;;;;;;;;;;;22.14;19.29;98290.88;4957176;29;961;-75
2023/03/18 07:46:04;;;;;;;;;;;;;;;22.26;19.13;98292.97;4941702;29;974;-75
2023/03/18 07:48:30;;;;;;;;;;;;;;;22.04;19.36;98289.06;4960375;28;1024;-75
2023/03/18 07:50:55;;;;;;;;;;;;;;;21.85;19.89;98291.50;4959046;28;1353;-75
2023/03/18 07:53:21;;;;;;;;;;;;;;;21.78;19.78;98296.53;4960625;28;1080;-75
2023/03/18 07:55:47;;;;;;;;;;;;;;;22.28;19.51;98299.03;4960496;28;1084;-75
2023/03/18 07:58:12;;;;;;;;;;;;;;;22.12;19.50;98286.84;4960334;28;1989;-76
2023/03/18 08:00:38;;;;;;;;;;;;;;;22.07;19.57;98286.13;4959124;28;1524;-75
2023/03/18 08:03:04;;;;;;;;;;;;;;;21.88;19.95;98294.69;4986882;28;1132;-76
2023/03/18 08:05:30;;;;;;;;;;;;;;;21.87;19.84;98305.22;4997110;28;872;-75
2023/03/18 08:07:56;;;;;;;;;;;;;;;21.91;20.01;98299.47;4996423;28;1426;-76
2023/03/18 08:10:21;;;;;;;;;;;;;;;22.08;19.55;98306.78;4980853;28;1506;-76
2023/03/18 08:12:48;;;;;;;;;;;;;;;22.47;19.30;98296.53;4998012;28;932;-76
2023/03/18 08:15:14;;;;;;;;;;;;;;;21.97;19.65;98309.06;4997785;28;857;-74
2023/03/18 08:17:40;;;;;;;;;;;;;;;21.94;20.02;98304.25;4996685;28;909;-76
2023/03/18 08:20:05;;;;;;;;;;;;;;;21.87;19.87;98307.28;4997741;28;1906;-75
2023/03/18 08:22:31;;;;;;;;;;;;;;;22.20;19.71;98305.31;4980710;28;1252;-75
2023/03/18 08:24:57;;;;;;;;;;;;;;;22.34;19.27;98308.59;4979850;28;1605;-75
2023/03/18 08:27:23;;;;;;;;;;;;;;;22.58;19.14;98308.38;4996558;28;996;-76
2023/03/18 08:29:48;;;;;;;;;;;;;;;22.06;19.89;98312.06;4996486;28;956;-75
2023/03/18 08:32:15;;;;;;;;;;;;;;;21.73;20.09;98308.38;4980403;28;1195;-75
2023/03/18 08:34:41;;;;;;;;;;;;;;;21.70;19.92;98301.53;4996464;28;853;-75
2023/03/18 08:37:07;;;;;;;;;;;;;;;21.85;20.15;98308.50;4996826;28;880;-76
2023/03/18 08:39:32;;;;;;;;;;;;;;;22.22;19.76;98297.94;4942100;29;1973;-75
2023/03/18 08:41:58;;;;;;;;;;;;;;;22.36;19.52;98296.78;4905402;29;1484;-75
2023/03/18 08:44:24;;;;;;;;;;;;;;;21.85;19.93;98290.69;4937219;29;987;-75
2023/03/18 08:46:49;;;;;;;;;;;;;;;21.80;20.06;98297.69;4927633;29;1356;-75
2023/03/18 08:49:15;;;;;;;;;;;;;;;21.71;20.46;98294.66;4924605;29;1247;-75
2023/03/18 08:51:40;;;;;;;;;;;;;;;21.99;20.31;98298.06;4939663;29;1568;-75
2023/03/18 08:54:07;;;;;;;;;;;;;;;22.03;20.00;98296.75;4956351;29;997;-75
2023/03/18 08:56:33;;;;;;;;;;;;;;;22.27;19.90;98305.91;4925080;29;1414;-75
2023/03/18 08:58:58;;;;;;;;;;;;;;;21.90;20.06;98309.22;4921335;29;1946;-76
2023/03/18 09:01:24;;;;;;;;;;;;;;;21.87;20.46;98310.09;4920789;29;975;-75
2023/03/18 09:03:49;;;;;;;;;;;;;;;21.79;20.22;98310.25;4930387;29;1203;-75
2023/03/18 09:06:15;;;;;;;;;;;;;;;21.95;20.55;98311.53;4898971;29;1622;-75
2023/03/18 09:08:41;;;;;;;;;;;;;;;22.16;19.90;98318.75;4883335;29;1016;-75
2023/03/18 09:11:06;;;;;;;;;;;;;;;22.12;19.92;98323.69;4883745;29;1333;-76
2023/03/18 09:13:32;;;;;;;;;;;;;;;21.92;20.25;98323.75;4880384;29;1282;-75
2023/03/18 09:15:58;;;;;;;;;;;;;;;21.92;20.21;98318.09;4849743;29;891;-75
2023/03/18 09:18:24;;;;;;;;;;;;;;;21.75;20.48;98337.84;4849329;29;1915;-75
2023/03/18 09:20:49;;;;;;;;;;;;;;;22.09;20.27;98323.31;4864658;29;927;-75
2023/03/18 09:23:17;;;;;;;;;;;;;;;22.23;19.95;98322.22;4880389;29;1002;-76
2023/03/18 09:25:42;;;;;;;;;;;;;;;22.14;20.14;98316.38;4849547;29;1057;-75
2023/03/18 09:28:08;;;;;;;;;;;;;;;21.89;20.77;98318.94;4878586;29;1479;-75
2023/03/18 09:30:33;;;;;;;;;;;;;;;21.73;20.92;98329.00;4898390;29;1153;-75
2023/03/18 09:32:59;;;;;;;;;;;;;;;21.58;21.13;98330.53;4898733;29;1028;-75
2023/03/18 09:35:24;;;;;;;;;;;;;;;22.03;20.33;98336.44;4913236;29;991;-75
2023/03/18 09:37:50;;;;;;;;;;;;;;;22.11;20.33;98325.75;4885809;29;1050;-75
2023/03/18 09:40:32;;;;;;;;;;;;;;;22.26;20.35;98329.03;4901966;29;1914;-75
2023/03/18 09:43:19;;;;;;;;;;;;;;;22.02;20.55;98326.34;4934783;28;1406;-75
2023/03/18 09:45:51;;;;;;;;;;;;;;;21.84;20.73;98326.72;4975998;28;894;-75
2023/03/18 09:48:35;;;;;;;;;;;;;;;21.74;20.91;98324.94;4976743;28;912;-76
2023/03/18 09:51:01;;;;;;;;;;;;;;;22.21;20.45;98327.53;4987419;28;1477;-76
2023/03/18 09:53:53;;;;;;;;;;;;;;;22.17;20.54;98312.63;4996455;28;944;-76
2023/03/18 09:56:25;;;;;;;;;;;;;;;22.11;20.71;98320.06;4993442;28;1092;-75
2023/03/18 09:59:04;;;;;;;;;;;;;;;21.93;20.80;98325.34;4995300;28;1902;-75
2023/03/18 10:01:30;;;;;;;;;;;;;;;21.83;21.19;98322.31;4995037;28;953;-75
2023/03/18 10:03:56;;;;;;;;;;;;;;;22.04;20.61;98320.22;4958216;28;1067;-75
2023/03/18 10:06:22;;;;;;;;;;;;;;;22.19;20.56;98323.56;4961987;28;1481;-75
2023/03/18 10:08:59;;;;;;;;;;;;;;;21.98;20.94;98316.31;4953912;28;1434;-75
2023/03/18 10:11:29;;;;;;;;;;;;;;;21.90;20.83;98320.53;4940280;29;943;-75
2023/03/18 10:13:55;;;;;;;;;;;;;;;21.93;20.74;98319.69;4939887;29;1151;-76
2023/03/18 10:16:21;;;;;;;;;;;;;;;22.03;20.71;98313.75;4951843;29;1930;-76
2023/03/18 10:18:46;;;;;;;;;;;;;;;22.20;20.33;98300.44;4943298;29;1899;-75
2023/03/18 10:21:31;;;;;;;;;;;;;;;22.16;20.72;98302.53;4959034;29;1231;-75
2023/03/18 10:24:02;;;;;;;;;;;;;;;22.24;20.54;98312.47;4958173;29;1538;-75
2023/03/18 10:26:34;;;;;;;;;;;;;;;21.94;21.04;98309.94;4958775;29;1141;-76
2023/03/18 10:29:00;;;;;;;;;;;;;;;21.72;21.08;98310.41;4958885;29;1529;-76
2023/03/18 10:31:30;;;;;;;;;;;;;;;21.85;20.87;98305.66;4958948;29;1429;-76
2023/03/18 10:34:08;;;;;;;;;;;;;;;22.01;20.80;98304.09;4946490;28;953;-76
2023/03/18 10:36:37;;;;;;;;;;;;;;;22.25;20.95;98299.09;4981448;28;1029;-76
2023/03/18 10:39:03;;;;;;;;;;;;;;;22.54;20.33;98294.31;4955682;28;1981;-75
2023/03/18 10:41:29;;;;;;;;;;;;;;;22.26;20.67;98292.19;4977911;28;907;-75
2023/03/18 10:43:55;;;;;;;;;;;;;;;21.92;21.04;98278.41;4978266;28;1238;-76
2023/03/18 10:46:21;;;;;;;;;;;;;;;21.73;21.27;98288.56;4961743;28;1130;-75
2023/03/18 10:48:47;;;;;;;;;;;;;;;21.94;21.33;98292.94;4977897;28;1194;-75
2023/03/18 10:51:18;;;;;;;;;;;;;;;21.81;21.29;98285.13;4973090;28;949;-76
2023/03/18 10:54:03;;;;;;;;;;;;;;;22.10;21.14;98279.59;4978897;28;1273;-76
2023/03/18 10:56:28;;;;;;;;;;;;;;;21.77;21.18;98284.41;4979981;28;896;-75
2023/03/18 10:58:55;;;;;;;;;;;;;;;21.90;21.14;98276.00;4979033;28;1899;-76
2023/03/18 11:01:21;;;;;;;;;;;;;;;21.88;21.40;98281.31;4978870;28;984;-76
2023/03/18 11:03:57;;;;;;;;;;;;;;;22.29;20.74;98269.44;4978692;28;1118;-76
2023/03/18 11:06:26;;;;;;;;;;;;;;;22.09;21.06;98271.53;4978854;28;1172;-75
2023/03/18 11:08:59;;;;;;;;;;;;;;;22.21;21.19;98262.34;4989463;28;1440;-75
2023/03/18 11:11:31;;;;;;;;;;;;;;;22.01;21.09;98253.88;4998079;28;964;-76
2023/03/18 11:13:57;;;;;;;;;;;;;;;21.69;21.64;98265.97;4997981;28;858;-76
2023/03/18 11:16:24;;;;;;;;;;;;;;;21.65;21.48;98259.59;4997964;28;955;-76
2023/03/18 11:18:51;;;;;;;;;;;;;;;21.94;21.32;98253.28;4997723;28;1894;-75
2023/03/18 11:21:17;;;;;;;;;;;;;;;22.09;21.22;98266.66;4981901;28;1112;-75
2023/03/18 11:23:55;;;;;;;;;;;;;;;22.00;21.17;98262.84;4984780;28;1330;-76
2023/03/18 11:26:27;;;;;;;;;;;;;;;21.91;21.37;98256.97;4978404;28;921;-75
2023/03/18 11:28:57;;;;;;;;;;;;;;;21.74;21.49;98256.94;4978634;28;884;-75
2023/03/18 11:31:22;;;;;;;;;;;;;;;21.94;21.32;98256.09;4978113;28;974;-75
2023/03/18 11:33:48;;;;;;;;;;;;;;;22.14;21.21;98262.53;4978399;28;1194;-75
2023/03/18 11:36:20;;;;;;;;;;;;;;;22.20;21.06;98251.44;4978462;28;934;-75
2023/03/18 11:38:54;;;;;;;;;;;;;;;22.01;21.25;98250.25;4979167;28;1963;-76
2023/03/18 11:41:23;;;;;;;;;;;;;;;21.96;21.32;98256.44;4978120;28;938;-75
2023/03/18 11:43:59;;;;;;;;;;;;;;;21.81;21.60;98256.81;4977918;28;955;-75
2023/03/18 11:46:31;;;;;;;;;;;;;;;22.07;21.49;98256.97;4978470;28;998;-76
2023/03/18 11:48:58;;;;;;;;;;;;;;;22.17;21.07;98261.63;4979259;28;913;-75
2023/03/18 11:51:26;;;;;;;;;;;;;;;22.19;21.33;98253.50;4978109;28;917;-75
2023/03/18 11:53:56;;;;;;;;;;;;;;;21.86;21.66;98261.13;4978893;28;1593;-75
2023/03/18 11:56:24;;;;;;;;;;;;;;;21.90;21.58;98269.53;4976640;28;980;-75
2023/03/18 11:59:08;;;;;;;;;;;;;;;21.85;21.89;98266.00;4976496;28;1977;-75
2023/03/18 12:01:40;;;;;;;;;;;;;;;21.92;21.50;98262.22;4976618;28;931;-75
2023/03/18 12:04:05;;;;;;;;;;;;;;;21.98;21.74;98276.66;4937505;29;1148;-75
2023/03/18 12:06:32;;;;;;;;;;;;;;;22.16;21.64;98271.38;4938063;29;1457;-76
2023/03/18 12:09:02;;;;;;;;;;;;;;;21.94;21.65;98278.78;4906487;29;1448;-76
2023/03/18 12:11:46;;;;;;;;;;;;;;;21.84;21.61;98272.91;4922011;29;1002;-75
2023/03/18 12:14:11;;;;;;;;;;;;;;;21.50;22.08;98263.97;4921919;29;1011;-76
2023/03/18 12:16:43;;;;;;;;;;;;;;;22.27;21.41;98276.78;4937722;29;1094;-75
2023/03/18 12:19:27;;;;;;;;;;;;;;;22.39;21.11;98266.78;4937353;29;1914;-76
2023/03/18 12:21:55;;;;;;;;;;;;;;;22.00;21.61;98263.63;4943352;29;1474;-76
2023/03/18 12:24:38;;;;;;;;;;;;;;;21.73;21.96;98261.03;4956797;29;981;-76
2023/03/18 12:27:20;;;;;;;;;;;;;;;21.85;21.99;98263.16;4964206;28;970;-76
2023/03/18 12:29:46;;;;;;;;;;;;;;;22.06;21.63;98261.06;4959581;28;918;-76
2023/03/18 12:32:21;;;;;;;;;;;;;;;21.98;21.75;98259.66;4960022;28;982;-76
2023/03/18 12:34:58;;;;;;;;;;;;;;;22.25;21.41;98257.38;4947459;28;1020;-75
2023/03/18 12:37:31;;;;;;;;;;;;;;;21.91;22.05;98254.13;4989106;28;1398;-76
2023/03/18 12:40:06;;;;;;;;;;;;;;;21.94;21.97;98258.94;4997558;28;1907;-76
2023/03/18 12:42:35;;;;;;;;;;;;;;;21.73;22.31;98255.38;4996500;28;931;-75
2023/03/18 12:45:01;;;;;;;;;;;;;;;21.95;21.84;98257.69;4997466;28;1019;-76
2023/03/18 12:47:29;;;;;;;;;;;;;;;22.00;22.03;98262.84;4980323;28;1073;-75
2023/03/18 12:50:13;;;;;;;;;;;;;;;21.93;22.10;98251.69;4980101;28;1242;-76
2023/03/18 12:52:42;;;;;;;;;;;;;;;21.87;21.98;98259.91;4993974;28;1439;-76
2023/03/18 12:55:09;;;;;;;;;;;;;;;21.76;22.13;98263.00;4979164;28;1045;-75
2023/03/18 12:57:43;;;;;;;;;;;;;;;21.87;22.13;98276.13;4978677;28;989;-75
2023/03/18 13:00:32;;;;;;;;;;;;;;;21.94;22.19;98287.25;4978551;28;1969;-75
2023/03/18 13:03:17;;;;;;;;;;;;;;;22.20;21.79;98283.41;4902114;29;1216;-75
2023/03/18 13:05:46;;;;;;;;;;;;;;;22.18;21.59;98274.56;4901347;29;1472;-75
2023/03/18 13:08:26;;;;;;;;;;;;;;;21.88;21.96;98275.66;4886365;29;1169;-75